createdAt,value
2019-02-02T00:02:27.922Z,90.85
2019-02-02T00:07:33.175Z,90.58
2019-02-02T00:12:39.356Z,90.50
2019-02-02T00:17:44.751Z,90.41
2019-02-02T00:22:50.318Z,90.42
2019-02-02T00:27:55.737Z,91.33
2019-02-02T00:33:01.918Z,90.96
2019-02-02T00:38:08.653Z,90.72
2019-02-02T00:43:13.813Z,90.59
2019-02-02T00:48:19.475Z,90.41
2019-02-02T00:53:24.844Z,90.37
2019-02-02T00:58:31.242Z,90.77
2019-02-02T01:03:37.380Z,91.06
2019-02-02T01:08:45.579Z,91.08
2019-02-02T01:13:51.974Z,91.72
2019-02-02T01:18:57.127Z,92.49
2019-02-02T01:24:02.493Z,92.40
2019-02-02T01:29:08.357Z,92.69
2019-02-02T01:34:13.541Z,92.58
2019-02-02T01:39:19.785Z,92.47
2019-02-02T01:44:24.937Z,92.15
2019-02-02T01:49:31.127Z,92.33
2019-02-02T01:54:38.381Z,92.33
2019-02-02T01:59:43.532Z,92.63
2019-02-02T02:04:49.506Z,92.74
2019-02-02T02:09:54.686Z,93.33
2019-02-02T02:14:59.931Z,93.96
2019-02-02T02:20:06.575Z,94.03
2019-02-02T02:25:21.404Z,93.68
2019-02-02T02:30:27.289Z,94.16
2019-02-02T02:35:32.553Z,94.04
2019-02-02T02:40:37.714Z,94.01
2019-02-02T02:45:44.382Z,94.04
2019-02-02T02:50:49.681Z,94.59
2019-02-02T02:55:54.990Z,94.25
2019-02-02T03:01:00.497Z,94.22
2019-02-02T03:06:06.991Z,94.13
2019-02-02T03:11:12.167Z,93.88
2019-02-02T03:16:17.374Z,93.96
2019-02-02T03:21:24.440Z,93.92
2019-02-02T03:26:29.717Z,93.62
2019-02-02T03:31:34.972Z,93.63
2019-02-02T03:36:40.573Z,94.12
2019-02-02T03:41:46.129Z,94.61
2019-02-02T03:46:51.584Z,94.77
2019-02-02T03:51:57.535Z,94.77
2019-02-02T03:57:02.702Z,94.27
2019-02-02T04:02:08.029Z,93.97
2019-02-02T04:07:13.198Z,94.16
2019-02-02T04:12:18.409Z,94.46
2019-02-02T04:17:23.570Z,94.57
2019-02-02T04:22:29.128Z,94.49
2019-02-02T04:27:34.281Z,94.14
2019-02-02T04:32:39.765Z,94.39
2019-02-02T04:37:45.099Z,94.82
2019-02-02T04:42:50.259Z,94.88
2019-02-02T04:47:55.398Z,94.88
2019-02-02T04:53:00.831Z,94.73
2019-02-02T04:58:06.400Z,94.69
2019-02-02T05:03:12.162Z,94.69
2019-02-02T05:08:17.302Z,94.43
2019-02-02T05:13:22.445Z,94.38
2019-02-02T05:18:27.949Z,94.57
2019-02-02T05:23:33.123Z,94.76
2019-02-02T05:28:38.274Z,94.50
2019-02-02T05:33:45.368Z,94.49
2019-02-02T05:38:50.646Z,94.60
2019-02-02T05:43:55.745Z,94.54
2019-02-02T05:49:00.925Z,94.56
2019-02-02T05:54:06.097Z,94.81
2019-02-02T05:59:11.455Z,94.84
2019-02-02T06:04:16.538Z,95.27
2019-02-02T06:09:23.864Z,95.53
2019-02-02T06:14:28.974Z,95.47
2019-02-02T06:19:34.134Z,95.21
2019-02-02T06:24:40.001Z,95.28
2019-02-02T06:29:45.519Z,95.33
2019-02-02T06:34:50.522Z,95.68
2019-02-02T06:39:55.595Z,95.72
2019-02-02T06:45:00.594Z,95.44
2019-02-02T06:50:07.422Z,95.33
2019-02-02T06:55:13.304Z,95.63
2019-02-02T07:00:20.391Z,96.20
2019-02-02T07:05:26.098Z,96.32
2019-02-02T07:10:31.978Z,96.40
2019-02-02T07:15:37.132Z,96.53
2019-02-02T07:20:43.274Z,96.39
2019-02-02T07:25:48.417Z,96.22
2019-02-02T07:30:53.635Z,96.09
2019-02-02T07:35:59.456Z,96.06
2019-02-02T07:41:04.879Z,95.99
2019-02-02T07:46:14.990Z,96.00
2019-02-02T07:51:17.215Z,96.02
2019-02-02T07:56:22.365Z,96.01
2019-02-02T08:01:27.516Z,95.90
2019-02-02T08:06:32.586Z,95.92
2019-02-02T08:11:37.727Z,96.15
2019-02-02T08:16:43.246Z,95.95
2019-02-02T08:21:49.292Z,95.67
2019-02-02T08:26:54.525Z,95.61
2019-02-02T08:31:59.703Z,95.78
2019-02-02T08:37:04.975Z,95.97
2019-02-02T08:42:10.720Z,96.15
2019-02-02T08:47:16.218Z,96.33
2019-02-02T08:52:21.710Z,96.26
2019-02-02T08:57:27.066Z,96.08
2019-02-02T09:02:32.284Z,95.92
2019-02-02T09:07:38.640Z,95.79
2019-02-02T09:12:43.795Z,95.55
2019-02-02T09:17:49.047Z,95.35
2019-02-02T09:23:03.893Z,95.17
2019-02-02T09:28:03.333Z,95.17
2019-02-02T09:33:08.929Z,95.23
2019-02-02T09:38:14.084Z,95.37
2019-02-02T09:43:19.494Z,95.44
2019-02-02T09:48:25.799Z,95.19
2019-02-02T09:53:31.474Z,95.02
2019-02-02T09:58:36.629Z,95.11
2019-02-02T10:03:41.775Z,94.89
2019-02-02T10:08:46.935Z,94.67
2019-02-02T10:13:52.353Z,94.51
2019-02-02T10:18:58.930Z,94.39
2019-02-02T10:24:04.771Z,94.34
2019-02-02T10:29:10.258Z,94.49
2019-02-02T10:34:16.040Z,94.45
2019-02-02T10:39:21.964Z,94.50
2019-02-02T10:44:27.154Z,94.58
2019-02-02T10:49:32.382Z,94.72
2019-02-02T10:54:37.915Z,94.78
2019-02-02T10:59:43.777Z,94.64
2019-02-02T11:04:48.853Z,94.63
2019-02-02T11:09:54.001Z,94.92
2019-02-02T11:15:00.182Z,94.73
2019-02-02T11:20:07.462Z,94.78
2019-02-02T11:25:14.118Z,94.67
2019-02-02T11:30:19.315Z,94.37
2019-02-02T11:35:24.798Z,94.24
2019-02-02T11:40:31.942Z,93.92
2019-02-02T11:45:37.080Z,93.47
2019-02-02T11:50:43.132Z,93.45
2019-02-02T11:55:49.047Z,93.41
2019-02-02T12:00:55.032Z,93.16
2019-02-02T12:06:00.162Z,93.11
2019-02-02T12:11:05.313Z,92.86
2019-02-02T12:16:10.400Z,92.90
2019-02-02T12:21:15.551Z,93.24
2019-02-02T12:26:21.169Z,93.33
2019-02-02T12:31:26.769Z,92.94
2019-02-02T12:36:31.956Z,92.59
2019-02-02T12:41:38.182Z,92.50
2019-02-02T12:46:43.548Z,92.73
2019-02-02T12:51:48.687Z,92.97
2019-02-02T12:56:54.323Z,93.11
2019-02-02T13:01:59.656Z,93.21
2019-02-02T13:07:05.024Z,93.48
2019-02-02T13:12:10.304Z,93.23
2019-02-02T13:17:15.789Z,92.86
2019-02-02T13:22:20.890Z,93.06
2019-02-02T13:27:26.034Z,92.88
2019-02-02T13:32:31.218Z,92.51
2019-02-02T13:37:36.289Z,92.33
2019-02-02T13:42:41.839Z,91.98
2019-02-02T13:47:47.143Z,92.08
2019-02-02T13:52:52.612Z,92.16
2019-02-02T13:57:57.883Z,92.65
2019-02-02T14:03:03.924Z,92.50
2019-02-02T14:08:09.427Z,92.51
2019-02-02T14:13:14.562Z,91.92
2019-02-02T14:18:20.152Z,91.92
2019-02-02T14:23:25.287Z,91.98
2019-02-02T14:28:30.435Z,92.03
2019-02-02T14:33:35.568Z,92.57
2019-02-02T14:38:40.710Z,92.89
2019-02-02T14:43:45.801Z,93.31
2019-02-02T14:48:50.948Z,93.42
2019-02-02T14:53:56.451Z,93.45
2019-02-02T14:59:03.731Z,93.63
2019-02-02T15:04:08.893Z,93.58
2019-02-02T15:09:15.000Z,93.67
2019-02-02T15:14:20.151Z,93.70
2019-02-02T15:19:25.313Z,93.43
2019-02-02T15:24:31.050Z,93.14
2019-02-02T15:29:36.533Z,92.96
2019-02-02T15:34:42.067Z,92.82
2019-02-02T15:39:48.115Z,93.00
2019-02-02T15:44:53.530Z,93.19
2019-02-02T15:49:58.827Z,92.92
2019-02-02T15:55:04.826Z,92.71
2019-02-02T16:00:14.482Z,92.88
2019-02-02T16:05:20.042Z,93.12
2019-02-02T16:10:26.984Z,93.49
2019-02-02T16:15:34.378Z,94.13
2019-02-02T16:20:43.692Z,94.67
2019-02-02T16:25:48.908Z,95.07
2019-02-02T16:30:55.118Z,95.01
2019-02-02T16:36:00.681Z,94.91
2019-02-02T16:41:05.823Z,95.26
2019-02-02T16:46:11.339Z,95.46
2019-02-02T16:51:17.368Z,95.49
2019-02-02T16:56:22.471Z,95.68
2019-02-02T17:01:27.643Z,95.81
2019-02-02T17:06:32.800Z,95.88
2019-02-02T17:11:37.969Z,96.19
2019-02-02T17:16:43.697Z,96.45
2019-02-02T17:21:48.827Z,96.58
2019-02-02T17:26:53.979Z,96.65
2019-02-02T17:31:59.151Z,96.56
2019-02-02T17:37:05.307Z,96.48
2019-02-02T17:42:10.457Z,96.41
2019-02-02T17:47:16.885Z,96.39
2019-02-02T17:52:22.032Z,96.39
2019-02-02T17:57:27.187Z,96.39
2019-02-02T18:02:33.383Z,96.44
2019-02-02T18:07:38.530Z,96.45
2019-02-02T18:12:43.821Z,96.40
2019-02-02T18:17:50.223Z,96.42
2019-02-02T18:22:55.228Z,96.43
2019-02-02T18:28:00.745Z,96.23
2019-02-02T18:33:06.806Z,96.09
2019-02-02T18:38:11.880Z,95.98
2019-02-02T18:43:17.356Z,95.90
2019-02-02T18:48:22.505Z,95.61
2019-02-02T18:53:27.575Z,95.45
2019-02-02T18:58:33.172Z,95.29
2019-02-02T19:03:38.660Z,95.38
2019-02-02T19:08:44.065Z,95.25
2019-02-02T19:13:49.281Z,95.21
2019-02-02T19:18:55.112Z,95.22
2019-02-02T19:24:00.467Z,95.22
2019-02-02T19:29:07.120Z,95.08
2019-02-02T19:34:13.190Z,94.97
2019-02-02T19:39:19.088Z,94.87
2019-02-02T19:44:24.231Z,94.85
2019-02-02T19:49:29.712Z,95.09
2019-02-02T19:54:34.715Z,95.36
2019-02-02T19:59:39.798Z,95.51
2019-02-02T20:04:44.880Z,95.58
2019-02-02T20:09:49.971Z,95.26
2019-02-02T20:14:55.139Z,95.50
2019-02-02T20:20:00.282Z,95.86
2019-02-02T20:25:06.312Z,96.08
2019-02-02T20:30:16.735Z,96.01
2019-02-02T20:35:21.842Z,95.95
2019-02-02T20:40:27.198Z,95.83
2019-02-02T20:45:34.111Z,95.91
2019-02-02T20:50:39.311Z,96.00
2019-02-02T20:55:46.226Z,96.06
2019-02-02T21:00:51.332Z,96.22
2019-02-02T21:05:56.484Z,96.06
2019-02-02T21:11:01.655Z,96.49
2019-02-02T21:16:06.937Z,96.59
2019-02-02T21:21:13.615Z,96.48
2019-02-02T21:26:19.231Z,96.44
2019-02-02T21:31:24.716Z,96.36
2019-02-02T21:36:29.855Z,96.29
2019-02-02T21:41:34.939Z,96.19
2019-02-02T21:46:40.014Z,96.55
2019-02-02T21:51:46.228Z,96.71
2019-02-02T21:56:51.376Z,96.91
2019-02-02T22:01:56.594Z,97.03
2019-02-02T22:07:02.211Z,96.98
2019-02-02T22:12:07.738Z,97.52
2019-02-02T22:17:14.047Z,97.59
2019-02-02T22:22:19.479Z,97.76
2019-02-02T22:27:24.633Z,97.95
2019-02-02T22:32:30.211Z,98.02
2019-02-02T22:37:35.486Z,98.00
2019-02-02T22:42:40.911Z,97.83
2019-02-02T22:47:46.814Z,97.60
2019-02-02T22:52:52.314Z,97.61
2019-02-02T22:57:57.480Z,97.39
2019-02-02T23:03:02.817Z,97.21
2019-02-02T23:08:20.158Z,96.96
2019-02-02T23:14:18.791Z,96.63
2019-02-02T23:19:24.409Z,96.49
2019-02-02T23:24:30.172Z,96.64
2019-02-02T23:29:35.243Z,96.72
2019-02-02T23:34:40.429Z,96.74
2019-02-02T23:39:45.493Z,96.66
2019-02-02T23:44:50.978Z,96.74
2019-02-02T23:49:57.843Z,97.21
2019-02-02T23:55:02.995Z,97.55
